Winthrop, Washington
Current Conditions -  °F | °C
As of 3:53 PM on Friday 31 Oct 2014 (Local Time) from KOMK Reporting Station
Overcast Overcast  
Wind Chill: 52°   Ceiling: 2700
Heat Index: 52°   Visibility: 10mi
Dew Point: 50°   Wind: 8mph
Humidity: 93%   Direction: 190°S
Pressure: 29.72"   Gusts: NA
Location:  48.48°N, 120.19°W
Report Text: KOMK 312253Z AUTO 19007KT 10SM OVC027 11/10 A2972 RMK AO2 RAE43 SLP066 P0000 T01110100
Loading
Personal Weather Stations






























Interactive Weather Map
Tropical Storm Tracking
New forecast layout! Learn more

10-Day Weather Forecast

Advertisements
Track Severe Weather on mobile